Time;durP1;ratioP1;P1;durP2;ratioP2;P2;SDS_P1;SDS_P2;PMS_P1;PMS_P2;Temp;Humidity;BMP_temperature;BMP_pressure;BME280_temperature;BME280_humidity;BME280_pressure;Samples;Min_cycle;Max_cycle;Signal;HPM_P1;HPM_P2
2022/09/14 00:01:37;;;;;;;2.83;2.63;;;19.50;99.90;;;;;;4885516;29;20949;-91
2022/09/14 00:04:06;;;;;;;2.90;2.37;;;19.50;99.90;;;;;;4887000;29;20443;-92
2022/09/14 00:06:32;;;;;;;2.73;2.53;;;19.50;99.90;;;;;;4888524;29;20668;-90
2022/09/14 00:09:00;;;;;;;4.77;2.70;;;19.50;99.90;;;;;;4890398;29;20953;-91
2022/09/14 00:11:28;;;;;;;4.40;3.70;;;19.60;99.90;;;;;;4876564;29;21091;-91
2022/09/14 00:13:54;;;;;;;4.50;4.20;;;19.60;99.90;;;;;;4892071;29;20457;-89
2022/09/14 00:16:51;;;;;;;4.87;4.10;;;19.60;99.90;;;;;;4892274;29;20439;-91
2022/09/14 00:19:27;;;;;;;4.60;4.30;;;19.60;99.90;;;;;;4888594;29;21546;-90
2022/09/14 00:22:20;;;;;;;7.10;3.90;;;19.50;99.90;;;;;;4886467;29;20452;-90
2022/09/14 00:24:58;;;;;;;4.30;3.90;;;19.50;99.90;;;;;;4903076;29;20819;-91
2022/09/14 00:27:56;;;;;;;4.73;4.10;;;19.50;99.90;;;;;;4898761;29;21011;-91
2022/09/14 00:30:27;;;;;;;4.07;3.87;;;19.50;99.90;;;;;;4885341;29;20860;-90
2022/09/14 00:32:59;;;;;;;4.10;3.80;;;19.50;99.90;;;;;;4897054;29;20490;-91
2022/09/14 00:35:24;;;;;;;3.33;3.03;;;19.40;99.90;;;;;;4888757;29;20455;-93
2022/09/14 00:37:52;;;;;;;2.83;2.50;;;19.30;99.90;;;;;;4885057;29;21073;-92
2022/09/14 00:40:30;;;;;;;3.73;2.63;;;19.30;99.90;;;;;;4887527;29;20444;-93
2022/09/14 00:42:56;;;;;;;4.13;3.00;;;19.20;99.90;;;;;;4891780;29;20176;-93
2022/09/14 00:45:24;;;;;;;3.00;2.70;;;19.20;99.90;;;;;;4884151;29;20471;-92
2022/09/14 00:47:55;;;;;;;2.80;2.60;;;19.20;99.90;;;;;;4892799;29;20187;-92
2022/09/14 00:50:22;;;;;;;3.33;3.00;;;19.30;99.90;;;;;;4873519;29;21349;-92
2022/09/14 00:52:49;;;;;;;3.80;3.40;;;19.30;99.90;;;;;;4891632;29;20514;-90
2022/09/14 00:55:21;;;;;;;3.30;3.10;;;19.30;99.90;;;;;;4884613;29;20522;-92
2022/09/14 00:57:49;;;;;;;3.40;2.77;;;19.30;99.90;;;;;;4902283;29;20447;-91
2022/09/14 01:00:19;;;;;;;3.13;2.90;;;19.30;99.90;;;;;;4902666;29;20513;-92
2022/09/14 01:02:44;;;;;;;3.30;3.00;;;19.30;99.90;;;;;;4866077;29;20467;-92
2022/09/14 01:05:15;;;;;;;3.80;3.50;;;19.30;99.90;;;;;;4884343;29;20460;-91
2022/09/14 01:08:06;;;;;;;3.67;3.43;;;19.40;99.90;;;;;;4892230;29;21492;-92
2022/09/14 01:11:00;;;;;;;3.73;3.30;;;19.40;99.90;;;;;;4906995;29;20444;-91
2022/09/14 01:13:58;;;;;;;3.80;3.50;;;19.40;99.90;;;;;;4888622;29;20483;-91
2022/09/14 01:16:54;;;;;;;3.40;3.20;;;19.30;99.90;;;;;;4891969;29;20443;-90
2022/09/14 01:19:57;;;;;;;3.90;3.60;;;19.40;99.90;;;;;;4907553;29;20456;-92
2022/09/14 01:22:35;;;;;;;3.73;3.43;;;19.40;99.90;;;;;;4907942;29;20530;-93
2022/09/14 01:25:31;;;;;;;4.20;3.90;;;19.40;99.90;;;;;;4910191;29;20917;-91
2022/09/14 01:28:00;;;;;;;4.10;3.63;;;19.30;99.90;;;;;;4894702;29;20519;-90
2022/09/14 01:30:30;;;;;;;4.40;4.03;;;19.20;99.90;;;;;;4904589;29;20446;-89
2022/09/14 01:33:12;;;;;;;6.90;4.77;;;19.00;99.90;;;;;;4905987;29;20475;-91
2022/09/14 01:35:45;;;;;;;8.17;5.10;;;19.00;99.90;;;;;;4903615;29;20515;-88
2022/09/14 01:38:32;;;;;;;6.30;4.83;;;18.80;99.90;;;;;;4899705;29;20478;-88
2022/09/14 01:41:01;;;;;;;6.13;4.90;;;18.70;99.90;;;;;;4892963;29;20455;-89
2022/09/14 01:43:36;;;;;;;4.83;4.33;;;18.80;99.90;;;;;;4890968;29;20544;-89
2022/09/14 01:46:30;;;;;;;4.70;4.17;;;18.80;99.90;;;;;;4889627;29;20443;-88
2022/09/14 01:49:23;;;;;;;5.20;4.10;;;18.90;99.90;;;;;;4905455;29;20478;-89
2022/09/14 01:52:13;;;;;;;5.10;4.60;;;19.00;99.90;;;;;;4887453;29;20646;-89
2022/09/14 01:54:48;;;;;;;9.93;5.23;;;19.10;99.90;;;;;;4911974;29;20510;-89
2022/09/14 01:57:35;;;;;;;4.70;4.30;;;19.10;99.90;;;;;;4892871;29;20450;-89
2022/09/14 02:00:06;;;;;;;4.87;4.37;;;18.90;99.90;;;;;;4905559;29;20794;-87
2022/09/14 02:03:17;;;;;;;4.83;4.43;;;18.80;99.90;;;;;;4904601;29;20497;-86
2022/09/14 02:06:03;;;;;;;5.07;4.57;;;18.60;99.90;;;;;;4826939;29;20454;-88
2022/09/14 02:08:33;;;;;;;8.10;5.00;;;18.60;99.90;;;;;;4887899;29;20801;-89
2022/09/14 02:10:59;;;;;;;4.30;3.67;;;18.50;99.90;;;;;;4887794;29;20818;-89
2022/09/14 02:13:26;;;;;;;4.27;3.60;;;18.50;99.90;;;;;;4889828;29;20479;-88
2022/09/14 02:15:51;;;;;;;5.30;3.70;;;18.50;99.90;;;;;;4889324;29;20965;-89
2022/09/14 02:18:18;;;;;;;4.87;3.63;;;18.60;99.90;;;;;;4886641;29;20454;-88
2022/09/14 02:21:02;;;;;;;7.33;3.60;;;18.50;99.90;;;;;;4893472;29;20188;-88
2022/09/14 02:23:28;;;;;;;4.47;3.60;;;18.60;99.90;;;;;;4896347;29;20542;-89
2022/09/14 02:26:02;;;;;;;4.73;3.13;;;18.60;99.90;;;;;;4898524;29;20458;-89
2022/09/14 02:28:27;;;;;;;5.40;3.20;;;18.60;99.90;;;;;;4881149;29;20199;-89
2022/09/14 02:31:24;;;;;;;4.27;3.87;;;18.60;99.90;;;;;;4906529;29;21005;-88
2022/09/14 02:34:22;;;;;;;3.80;3.43;;;18.70;99.90;;;;;;4895662;29;20184;-89
2022/09/14 02:37:26;;;;;;;4.80;3.63;;;18.70;99.90;;;;;;4887791;29;20494;-88
2022/09/14 02:40:22;;;;;;;5.60;4.30;;;18.80;99.90;;;;;;4918359;29;20467;-88
2022/09/14 02:43:22;;;;;;;3.60;3.30;;;18.70;99.90;;;;;;4919257;29;20520;-88
2022/09/14 02:46:26;;;;;;;4.57;4.00;;;18.60;99.90;;;;;;4904773;29;20891;-89
2022/09/14 02:49:20;;;;;;;6.37;4.00;;;18.50;99.90;;;;;;4917450;29;20478;-89
2022/09/14 02:52:13;;;;;;;4.43;3.50;;;18.30;99.90;;;;;;4904280;29;20515;-89
2022/09/14 02:54:52;;;;;;;5.20;3.90;;;18.40;99.90;;;;;;4901888;29;20432;-86
2022/09/14 02:57:18;;;;;;;4.90;4.50;;;18.50;99.90;;;;;;4898386;29;20447;-89
2022/09/14 02:59:52;;;;;;;5.60;5.10;;;18.40;99.90;;;;;;4898194;29;20993;-89
2022/09/14 03:02:39;;;;;;;7.27;5.50;;;18.30;99.90;;;;;;4913821;29;20187;-88
2022/09/14 03:05:06;;;;;;;6.33;5.90;;;18.30;99.90;;;;;;4910781;29;20459;-89
2022/09/14 03:07:42;;;;;;;6.27;5.73;;;18.30;99.90;;;;;;4880771;29;20462;-89
2022/09/14 03:10:08;;;;;;;7.03;6.43;;;18.30;99.90;;;;;;4897649;29;20447;-88
2022/09/14 03:12:33;;;;;;;10.50;5.50;;;18.30;99.90;;;;;;4895347;29;20522;-89
2022/09/14 03:14:59;;;;;;;6.80;6.13;;;18.30;99.90;;;;;;4898907;29;21027;-87
2022/09/14 03:17:24;;;;;;;6.87;6.27;;;18.30;99.90;;;;;;4896659;29;20272;-88
2022/09/14 03:19:50;;;;;;;6.90;5.50;;;18.30;99.90;;;;;;4906637;29;20406;-89
2022/09/14 03:22:21;;;;;;;6.60;6.00;;;18.20;99.90;;;;;;4890785;29;20335;-90
2022/09/14 03:24:50;;;;;;;6.00;5.13;;;18.20;99.90;;;;;;4885613;29;20208;-90
2022/09/14 03:27:18;;;;;;;6.10;5.47;;;18.20;99.90;;;;;;4883556;29;20460;-88
2022/09/14 03:29:43;;;;;;;5.97;5.47;;;18.20;99.90;;;;;;4897308;29;20918;-89
2022/09/14 03:32:11;;;;;;;5.93;5.53;;;18.20;99.90;;;;;;4888231;29;20483;-89
2022/09/14 03:34:52;;;;;;;6.13;5.50;;;18.10;99.90;;;;;;4902336;29;20214;-88
2022/09/14 03:37:31;;;;;;;6.87;5.30;;;18.10;99.90;;;;;;4880323;29;20948;-88
2022/09/14 03:40:16;;;;;;;6.60;5.33;;;18.10;99.90;;;;;;4881362;29;20452;-88
2022/09/14 03:42:49;;;;;;;6.73;5.60;;;18.20;99.90;;;;;;4886295;29;20448;-88
2022/09/14 03:45:16;;;;;;;5.57;5.07;;;18.20;99.90;;;;;;4883383;29;20543;-89
2022/09/14 03:47:42;;;;;;;5.90;4.87;;;18.30;99.90;;;;;;4885514;29;20684;-89
2022/09/14 03:50:16;;;;;;;5.70;5.10;;;18.30;99.90;;;;;;4882213;29;20598;-90
2022/09/14 03:52:53;;;;;;;6.60;6.00;;;18.30;99.90;;;;;;4881212;29;20527;-89
2022/09/14 03:55:25;;;;;;;8.03;7.23;;;18.20;99.90;;;;;;4880654;29;20541;-88
2022/09/14 03:57:56;;;;;;;7.93;7.33;;;18.20;99.90;;;;;;4900232;29;20591;-88
2022/09/14 04:00:22;;;;;;;7.27;6.67;;;18.20;99.90;;;;;;4895320;29;20446;-87
2022/09/14 04:02:48;;;;;;;8.40;7.13;;;18.10;99.90;;;;;;4885056;29;20447;-89
2022/09/14 04:05:14;;;;;;;8.00;7.30;;;18.00;99.90;;;;;;4883375;29;20498;-89
2022/09/14 04:10:58;;;;;;;7.13;6.60;;;18.00;99.90;;;;;;4898904;29;20474;-88
2022/09/14 04:13:28;;;;;;;6.63;5.90;;;17.90;99.90;;;;;;4901205;29;20524;-88
2022/09/14 04:15:56;;;;;;;7.13;6.10;;;18.00;99.90;;;;;;4889822;29;20590;-89
2022/09/14 04:18:26;;;;;;;6.43;5.93;;;18.00;99.90;;;;;;4898368;29;20495;-88
2022/09/14 04:21:11;;;;;;;6.40;5.90;;;18.10;99.90;;;;;;4884612;29;22536;-87
2022/09/14 04:23:57;;;;;;;7.63;6.30;;;18.10;99.90;;;;;;4897365;29;20517;-91
2022/09/14 04:26:25;;;;;;;7.03;6.53;;;18.10;99.90;;;;;;4893095;29;20531;-90
2022/09/14 04:28:55;;;;;;;9.17;6.73;;;18.00;99.90;;;;;;4893190;29;20219;-91
2022/09/14 04:31:21;;;;;;;8.00;7.30;;;17.90;99.90;;;;;;4886653;29;20789;-90
2022/09/14 04:33:55;;;;;;;7.50;6.90;;;17.90;99.90;;;;;;4908580;29;20451;-90
2022/09/14 04:36:22;;;;;;;7.30;6.80;;;17.90;99.90;;;;;;4889545;29;20637;-91
2022/09/14 04:38:52;;;;;;;7.67;6.97;;;18.00;99.90;;;;;;4880526;29;20886;-92
2022/09/14 04:41:19;;;;;;;7.33;6.80;;;17.90;99.90;;;;;;4893482;29;21037;-90
2022/09/14 04:43:46;;;;;;;7.17;6.47;;;18.00;99.90;;;;;;4895313;29;20448;-88
2022/09/14 04:46:21;;;;;;;6.90;6.37;;;18.00;99.90;;;;;;4896099;29;20489;-90
2022/09/14 04:48:47;;;;;;;7.17;6.67;;;17.90;99.90;;;;;;4894707;29;20549;-90
2022/09/14 04:51:19;;;;;;;7.13;6.63;;;18.00;99.90;;;;;;4909476;29;20520;-90
2022/09/14 04:53:48;;;;;;;10.80;10.00;;;18.00;99.90;;;;;;4883275;29;20637;-90
2022/09/14 04:56:14;;;;;;;9.83;7.30;;;18.00;99.90;;;;;;4890044;29;20452;-91
2022/09/14 04:58:45;;;;;;;8.03;7.43;;;18.00;99.90;;;;;;4917452;29;20879;-91
2022/09/14 05:01:15;;;;;;;9.03;8.30;;;17.90;99.90;;;;;;4900895;29;20896;-89
2022/09/14 05:03:43;;;;;;;22.60;20.70;;;18.00;99.90;;;;;;4893592;29;20446;-90
2022/09/14 05:06:14;;;;;;;8.73;8.13;;;18.00;99.90;;;;;;4890798;29;20486;-90
2022/09/14 05:08:41;;;;;;;8.03;7.43;;;18.00;99.90;;;;;;4879228;29;20957;-90
2022/09/14 05:11:08;;;;;;;8.37;7.63;;;18.00;99.90;;;;;;4879353;29;20463;-90
2022/09/14 05:13:34;;;;;;;8.60;7.90;;;18.00;99.90;;;;;;4910243;29;20570;-90
2022/09/14 05:16:21;;;;;;;8.93;8.13;;;18.00;99.90;;;;;;4898965;29;20474;-89
2022/09/14 05:18:47;;;;;;;8.30;7.70;;;18.00;99.90;;;;;;4912960;29;20564;-91
2022/09/14 05:21:16;;;;;;;8.47;7.70;;;18.00;99.90;;;;;;4890831;29;20465;-91
2022/09/14 05:23:42;;;;;;;9.47;8.67;;;18.00;99.90;;;;;;4907015;29;20458;-92
2022/09/14 05:26:08;;;;;;;8.47;7.80;;;18.00;99.90;;;;;;4888158;29;20497;-90
2022/09/14 05:28:35;;;;;;;7.80;7.20;;;17.90;99.90;;;;;;4892619;29;20447;-92
2022/09/14 05:31:09;;;;;;;8.60;7.90;;;18.00;99.90;;;;;;4893942;29;20448;-91
2022/09/14 05:33:35;;;;;;;8.23;7.50;;;18.00;99.90;;;;;;4896732;29;20495;-89
2022/09/14 05:36:05;;;;;;;7.50;6.90;;;18.00;99.90;;;;;;4894869;29;20993;-91
2022/09/14 05:38:33;;;;;;;8.50;7.80;;;18.00;99.90;;;;;;4897477;29;20191;-90
2022/09/14 05:40:59;;;;;;;7.40;6.67;;;18.10;99.90;;;;;;4914059;29;20443;-89
2022/09/14 05:43:24;;;;;;;8.07;7.37;;;18.10;99.90;;;;;;4890203;29;20511;-91
2022/09/14 05:45:50;;;;;;;9.70;7.27;;;18.10;99.90;;;;;;4893797;29;20192;-91
2022/09/14 05:48:17;;;;;;;7.33;6.73;;;18.20;99.90;;;;;;4891322;29;20231;-89
2022/09/14 05:50:42;;;;;;;6.97;6.40;;;18.20;99.90;;;;;;4891458;29;20464;-90
2022/09/14 05:53:13;;;;;;;8.50;7.80;;;18.20;99.90;;;;;;4891068;29;20491;-91
2022/09/14 05:56:07;;;;;;;7.53;7.00;;;18.30;99.90;;;;;;4892945;29;20440;-89
2022/09/14 05:58:36;;;;;;;7.87;7.17;;;18.30;99.90;;;;;;4888164;29;20475;-90
2022/09/14 06:01:20;;;;;;;8.50;7.80;;;18.30;99.90;;;;;;4893233;29;20452;-90
2022/09/14 06:03:46;;;;;;;7.87;7.17;;;18.40;99.90;;;;;;4905501;29;20999;-90
2022/09/14 06:06:18;;;;;;;7.00;6.47;;;18.50;99.90;;;;;;4892974;29;20558;-90
2022/09/14 06:08:44;;;;;;;7.53;6.83;;;18.60;99.90;;;;;;4889806;29;20448;-90
2022/09/14 06:11:27;;;;;;;7.33;6.77;;;18.60;99.90;;;;;;4887997;29;20449;-90
2022/09/14 06:14:02;;;;;;;7.00;6.47;;;18.60;99.90;;;;;;4887789;29;20452;-90
2022/09/14 06:16:36;;;;;;;7.43;5.50;;;18.70;99.90;;;;;;4899829;29;20545;-89
2022/09/14 06:19:02;;;;;;;6.80;6.30;;;18.80;99.90;;;;;;4904896;29;20431;-90
2022/09/14 06:21:31;;;;;;;6.73;6.17;;;18.80;99.90;;;;;;4888988;29;20858;-90
2022/09/14 06:23:57;;;;;;;6.93;6.33;;;18.90;99.90;;;;;;4891779;29;20191;-89
2022/09/14 06:26:23;;;;;;;7.90;7.10;;;19.00;99.90;;;;;;4896495;29;20522;-92
2022/09/14 06:28:49;;;;;;;7.57;6.87;;;19.00;99.90;;;;;;4892836;29;20440;-93
2022/09/14 06:31:16;;;;;;;6.80;6.20;;;19.10;99.90;;;;;;4903415;29;20192;-92
2022/09/14 06:33:44;;;;;;;7.10;6.50;;;19.20;99.90;;;;;;4889887;29;20479;-93
2022/09/14 06:36:11;;;;;;;6.20;5.70;;;19.30;99.90;;;;;;4906149;29;20443;-93
2022/09/14 06:38:37;;;;;;;7.70;7.10;;;19.20;99.90;;;;;;4897036;29;20447;-94
2022/09/14 06:41:05;;;;;;;11.37;7.53;;;19.30;99.90;;;;;;4897966;29;20950;-94
2022/09/14 06:43:33;;;;;;;6.53;5.83;;;19.30;99.90;;;;;;4897190;29;20447;-93
2022/09/14 06:46:14;;;;;;;6.43;5.93;;;19.40;99.90;;;;;;4912539;29;20447;-93
2022/09/14 06:48:48;;;;;;;7.70;5.73;;;19.50;99.90;;;;;;4912033;29;20513;-94
2022/09/14 06:51:24;;;;;;;6.03;5.57;;;19.50;99.90;;;;;;4912362;29;20961;-93
2022/09/14 06:53:51;;;;;;;6.57;5.50;;;19.60;99.90;;;;;;4908011;29;21696;-90
2022/09/14 06:56:17;;;;;;;7.30;5.20;;;19.60;99.90;;;;;;4887238;29;21818;-90
2022/09/14 06:58:43;;;;;;;6.50;5.90;;;19.70;99.90;;;;;;4902049;29;20451;-90
2022/09/14 07:01:14;;;;;;;6.63;6.13;;;19.80;99.90;;;;;;4892117;29;20817;-90
2022/09/14 07:03:42;;;;;;;5.67;5.17;;;19.80;99.90;;;;;;4893200;29;20474;-89
2022/09/14 07:06:11;;;;;;;6.00;5.50;;;19.90;99.90;;;;;;4882158;29;20538;-89
2022/09/14 07:08:38;;;;;;;6.07;5.17;;;19.90;99.90;;;;;;4884035;29;20443;-89
2022/09/14 07:11:05;;;;;;;5.53;5.13;;;20.10;99.90;;;;;;4891215;29;23021;-90
2022/09/14 07:13:31;;;;;;;6.13;5.63;;;20.20;99.90;;;;;;4907402;29;20479;-90
2022/09/14 07:15:57;;;;;;;5.67;5.27;;;20.20;99.90;;;;;;4874911;29;20451;-90
2022/09/14 07:18:29;;;;;;;5.57;5.07;;;20.30;99.90;;;;;;4895205;29;20459;-90
2022/09/14 07:20:54;;;;;;;5.60;4.83;;;20.40;99.90;;;;;;4885968;29;20191;-90
2022/09/14 07:23:20;;;;;;;5.63;5.23;;;20.40;99.90;;;;;;4886742;29;20502;-89
2022/09/14 07:25:46;;;;;;;6.90;6.30;;;20.50;99.90;;;;;;4884856;29;20287;-90
2022/09/14 07:28:12;;;;;;;5.00;4.60;;;20.60;99.90;;;;;;4887629;29;24661;-90
2022/09/14 07:30:40;;;;;;;4.87;4.47;;;20.70;99.90;;;;;;4890540;29;20223;-90
2022/09/14 07:33:06;;;;;;;5.70;5.30;;;20.70;99.90;;;;;;4891596;29;20223;-91
2022/09/14 07:35:33;;;;;;;7.13;4.50;;;20.70;99.90;;;;;;4887288;29;21111;-91
2022/09/14 07:37:58;;;;;;;5.73;5.13;;;20.70;99.90;;;;;;4890588;29;20451;-90
2022/09/14 07:40:24;;;;;;;6.80;5.20;;;20.80;99.90;;;;;;4898022;29;20528;-90
2022/09/14 07:42:51;;;;;;;4.93;4.63;;;20.80;99.90;;;;;;4894750;29;20191;-89
2022/09/14 07:45:16;;;;;;;5.07;4.57;;;20.80;99.90;;;;;;4902884;29;20222;-91
2022/09/14 07:47:42;;;;;;;4.50;4.10;;;20.90;99.90;;;;;;4896112;29;20562;-91
2022/09/14 07:50:08;;;;;;;4.40;4.10;;;21.00;99.90;;;;;;4891445;29;20207;-90
2022/09/14 07:52:33;;;;;;;6.03;4.77;;;21.10;99.90;;;;;;4889816;29;20618;-90
2022/09/14 07:55:02;;;;;;;4.90;4.60;;;21.30;99.90;;;;;;4894198;29;23251;-92
2022/09/14 07:57:28;;;;;;;4.00;3.70;;;21.40;99.90;;;;;;4891186;29;20191;-91
2022/09/14 07:59:53;;;;;;;4.73;4.33;;;21.40;99.90;;;;;;4892953;29;20924;-91
2022/09/14 08:02:20;;;;;;;4.43;4.13;;;21.40;99.90;;;;;;4888281;29;20195;-90
2022/09/14 08:04:46;;;;;;;4.73;4.33;;;21.60;99.90;;;;;;4913013;29;20319;-92
2022/09/14 08:07:13;;;;;;;4.67;4.27;;;21.90;99.90;;;;;;4894869;29;20440;-90
2022/09/14 08:09:38;;;;;;;4.03;3.83;;;22.00;99.90;;;;;;4900954;29;21188;-91
2022/09/14 08:12:07;;;;;;;4.37;4.07;;;22.00;99.90;;;;;;4909132;29;20515;-90
2022/09/14 08:14:32;;;;;;;4.33;3.80;;;22.10;99.90;;;;;;4904540;29;20270;-91
2022/09/14 08:16:59;;;;;;;4.07;3.77;;;22.10;99.90;;;;;;4891164;29;20987;-93
2022/09/14 08:19:25;;;;;;;4.23;3.83;;;22.20;99.90;;;;;;4900791;29;20254;-93
2022/09/14 08:21:51;;;;;;;4.90;4.40;;;22.20;99.90;;;;;;4903901;29;20454;-92
2022/09/14 08:24:19;;;;;;;3.60;3.30;;;22.40;99.90;;;;;;4900597;29;20194;-92
2022/09/14 08:26:45;;;;;;;4.40;4.10;;;22.50;99.90;;;;;;4897611;29;20604;-92
2022/09/14 08:29:18;;;;;;;3.97;3.67;;;22.50;99.90;;;;;;4904825;29;20959;-92
2022/09/14 08:31:57;;;;;;;4.30;3.90;;;22.50;99.90;;;;;;4904392;29;20447;-92
2022/09/14 08:34:23;;;;;;;4.10;3.77;;;22.60;99.90;;;;;;4901720;29;20489;-93
2022/09/14 08:36:48;;;;;;;4.10;3.80;;;22.60;99.90;;;;;;4901793;29;20451;-92
2022/09/14 08:39:15;;;;;;;4.70;3.73;;;22.60;99.90;;;;;;4903839;29;20286;-87
2022/09/14 08:41:47;;;;;;;4.20;3.50;;;22.60;99.90;;;;;;4898919;29;20190;-92
2022/09/14 08:44:28;;;;;;;3.70;3.40;;;22.60;99.90;;;;;;4909041;29;20454;-91
2022/09/14 08:47:57;;;;;;;5.27;4.00;;;22.50;99.90;;;;;;4900198;29;20718;-92
2022/09/14 08:50:23;;;;;;;3.90;3.60;;;22.30;99.90;;;;;;4906388;29;20457;-92
2022/09/14 08:53:04;;;;;;;5.33;3.90;;;22.20;99.90;;;;;;4902364;29;20482;-93
2022/09/14 08:56:10;;;;;;;4.27;3.97;;;22.10;99.90;;;;;;4901618;29;20449;-91
2022/09/14 08:59:01;;;;;;;4.20;3.90;;;22.20;99.90;;;;;;4898505;29;20443;-92
2022/09/14 09:01:36;;;;;;;3.97;3.60;;;22.40;99.90;;;;;;4905033;29;20498;-92
2022/09/14 09:04:46;;;;;;;3.97;3.47;;;22.70;99.90;;;;;;4900342;29;20530;-92
2022/09/14 09:07:20;;;;;;;3.80;3.20;;;22.90;99.90;;;;;;4916157;29;20440;-92
2022/09/14 09:09:49;;;;;;;5.27;3.30;;;23.10;99.90;;;;;;4919274;29;20450;-93
2022/09/14 09:12:20;;;;;;;3.73;3.43;;;23.40;99.90;;;;;;4902591;29;20483;-93
2022/09/14 09:14:59;;;;;;;4.10;3.80;;;23.60;99.90;;;;;;4898493;29;21005;-93
2022/09/14 09:17:35;;;;;;;3.77;3.50;;;23.70;99.90;;;;;;4903109;29;20510;-91
2022/09/14 09:20:22;;;;;;;3.73;3.40;;;23.80;99.90;;;;;;4898241;29;20531;-92
2022/09/14 09:23:14;;;;;;;3.60;3.30;;;24.20;99.90;;;;;;4902738;29;20809;-94
2022/09/14 09:26:09;;;;;;;3.10;2.90;;;24.20;99.90;;;;;;4908704;29;20549;-94
2022/09/14 09:28:41;;;;;;;3.97;3.57;;;24.40;99.90;;;;;;4898418;29;20444;-94
2022/09/14 09:31:13;;;;;;;5.17;3.27;;;24.30;99.90;;;;;;4918068;29;20485;-95
2022/09/14 09:33:39;;;;;;;6.43;3.40;;;24.40;99.90;;;;;;4900032;29;20475;-94
2022/09/14 09:36:07;;;;;;;3.53;2.97;;;24.50;99.90;;;;;;4895956;29;20443;-92
2022/09/14 09:38:33;;;;;;;4.80;3.33;;;24.60;99.90;;;;;;4894943;29;20238;-96
2022/09/14 09:41:52;;;;;;;3.10;2.80;;;25.00;99.90;;;;;;4905016;29;20487;-93
2022/09/14 09:44:17;;;;;;;5.70;3.50;;;25.20;99.90;;;;;;4909675;29;20826;-93
2022/09/14 09:46:58;;;;;;;5.23;3.50;;;25.20;99.90;;;;;;4896387;29;20780;-94
2022/09/14 09:49:37;;;;;;;4.03;3.73;;;25.40;99.90;;;;;;4901428;29;20188;-95
2022/09/14 09:52:14;;;;;;;3.30;3.00;;;25.50;99.90;;;;;;4903561;29;20479;-95
2022/09/14 09:54:47;;;;;;;3.50;3.20;;;25.80;99.90;;;;;;4897268;29;20447;-94
2022/09/14 09:57:30;;;;;;;4.60;3.23;;;25.80;99.90;;;;;;4894104;29;20831;-93
2022/09/14 10:00:13;;;;;;;2.77;2.57;;;25.70;99.90;;;;;;4912508;29;21043;-94
2022/09/14 10:02:49;;;;;;;3.30;3.00;;;25.70;99.90;;;;;;4913693;29;20877;-93
2022/09/14 10:05:30;;;;;;;3.77;3.47;;;25.80;99.90;;;;;;4913524;29;20443;-92
2022/09/14 10:08:12;;;;;;;5.97;3.10;;;25.80;99.90;;;;;;4904493;29;20459;-94
2022/09/14 10:10:58;;;;;;;3.63;3.33;;;25.60;99.90;;;;;;4897877;29;20610;-89
2022/09/14 10:21:21;;;;;;;3.07;2.57;;;26.30;99.90;;;;;;5165650;23;20511;-91
2022/09/14 10:24:20;;;;;;;3.03;2.73;;;26.50;99.90;;;;;;4912872;29;20503;-90
2022/09/14 10:26:46;;;;;;;3.97;3.50;;;26.50;99.90;;;;;;4899453;29;20455;-92
2022/09/14 10:29:29;;;;;;;3.07;2.70;;;26.30;99.90;;;;;;4893144;29;20855;-93
2022/09/14 10:32:36;;;;;;;5.47;3.23;;;26.10;99.90;;;;;;4899651;29;20243;-96
2022/09/14 10:51:32;;;;;;;2.70;2.50;;;25.80;99.90;;;;;;4916596;29;20490;-96
2022/09/14 10:54:39;;;;;;;3.00;2.70;;;25.60;99.90;;;;;;4901690;29;20549;-96
2022/09/14 10:57:38;;;;;;;7.53;2.70;;;25.60;99.90;;;;;;4890454;29;20550;-95
2022/09/14 11:00:11;;;;;;;2.57;2.37;;;25.40;99.90;;;;;;4897048;29;20479;-94
2022/09/14 11:02:46;;;;;;;5.40;2.83;;;25.40;99.90;;;;;;4894289;29;20582;-95
2022/09/14 11:05:36;;;;;;;3.20;3.00;;;25.60;99.90;;;;;;4918537;29;20451;-95
2022/09/14 11:08:17;;;;;;;3.13;2.93;;;25.90;99.90;;;;;;4901390;29;21169;-95
2022/09/14 11:11:08;;;;;;;3.20;3.00;;;26.00;99.90;;;;;;4906885;29;20444;-93
2022/09/14 11:24:51;;;;;;;2.60;2.40;;;26.20;99.90;;;;;;4915709;29;20847;-96
2022/09/14 11:27:37;;;;;;;3.83;2.50;;;26.10;99.90;;;;;;4894376;29;20542;-96
2022/09/14 11:30:18;;;;;;;3.80;2.30;;;26.20;99.90;;;;;;4899569;29;20447;-93
2022/09/14 11:33:06;;;;;;;2.57;2.30;;;25.90;99.90;;;;;;4890120;29;20526;-95
2022/09/14 11:35:44;;;;;;;2.80;2.50;;;26.00;99.90;;;;;;4901980;29;20500;-96
2022/09/14 11:38:20;;;;;;;3.00;2.50;;;26.00;99.90;;;;;;4921598;29;20570;-94
2022/09/14 11:40:52;;;;;;;2.83;2.60;;;25.90;99.90;;;;;;4915246;29;20430;-94
2022/09/14 11:43:50;;;;;;;2.43;2.20;;;26.00;99.90;;;;;;4912258;29;20491;-94
2022/09/14 11:46:26;;;;;;;3.83;2.70;;;25.80;99.90;;;;;;4864859;29;20443;-93
2022/09/14 11:48:54;;;;;;;4.10;2.67;;;25.80;99.90;;;;;;4893658;29;20479;-93
2022/09/14 11:51:35;;;;;;;3.70;3.00;;;25.80;99.90;;;;;;4886732;29;20453;-93
2022/09/14 11:54:03;;;;;;;2.60;2.40;;;26.10;99.90;;;;;;4892983;29;20486;-93
2022/09/14 11:57:09;;;;;;;4.20;2.43;;;26.20;99.90;;;;;;4893952;29;20447;-93
2022/09/14 11:59:43;;;;;;;3.73;2.07;;;26.00;99.90;;;;;;4892111;29;20519;-88
2022/09/14 12:02:31;;;;;;;3.60;2.20;;;25.80;99.90;;;;;;4894726;29;21117;-88
2022/09/14 12:05:03;;;;;;;5.47;2.20;;;25.60;99.90;;;;;;4897877;29;20440;-88
2022/09/14 12:07:49;;;;;;;4.00;2.50;;;25.50;99.90;;;;;;4893110;29;20451;-87
2022/09/14 12:10:17;;;;;;;2.20;2.10;;;25.60;99.90;;;;;;4897003;29;20455;-88
2022/09/14 12:12:57;;;;;;;4.57;2.33;;;25.60;99.90;;;;;;4889293;29;20477;-87
2022/09/14 12:15:51;;;;;;;6.80;2.20;;;25.70;99.90;;;;;;4886056;29;20447;-88
2022/09/14 12:18:26;;;;;;;3.07;2.63;;;25.40;99.90;;;;;;4900417;29;20809;-88
2022/09/14 12:21:24;;;;;;;3.60;2.47;;;25.30;99.90;;;;;;4889753;29;20443;-88
2022/09/14 12:24:12;;;;;;;3.73;3.17;;;25.30;99.90;;;;;;4913663;29;20807;-89
2022/09/14 12:26:38;;;;;;;2.33;2.17;;;25.20;99.90;;;;;;4892565;29;21168;-88
2022/09/14 12:29:23;;;;;;;2.37;2.17;;;25.20;99.90;;;;;;4908393;29;20440;-88
2022/09/14 12:31:54;;;;;;;5.33;2.40;;;25.20;99.90;;;;;;4889434;29;20745;-89
2022/09/14 12:34:30;;;;;;;2.93;2.70;;;25.20;99.90;;;;;;4887899;29;20452;-88
2022/09/14 12:37:00;;;;;;;3.67;2.60;;;25.20;99.90;;;;;;4889825;29;20903;-89
2022/09/14 12:39:48;;;;;;;2.93;2.50;;;25.20;99.90;;;;;;4897263;29;20502;-90
2022/09/14 12:42:28;;;;;;;4.20;2.50;;;25.00;99.90;;;;;;4904344;29;20456;-88
2022/09/14 12:45:40;;;;;;;2.97;2.70;;;24.80;99.90;;;;;;4904342;29;20448;-88
2022/09/14 12:48:07;;;;;;;2.93;2.70;;;24.60;99.90;;;;;;4888891;29;20883;-89
2022/09/14 12:50:34;;;;;;;3.30;2.60;;;24.40;99.90;;;;;;4904034;29;20450;-88
2022/09/14 12:53:13;;;;;;;3.10;2.90;;;24.10;99.90;;;;;;4894034;29;20517;-88
2022/09/14 12:55:51;;;;;;;4.43;3.27;;;23.70;99.90;;;;;;4860988;29;20454;-89
2022/09/14 12:58:37;;;;;;;4.90;3.23;;;23.50;99.90;;;;;;4890312;29;20945;-90
2022/09/14 13:01:20;;;;;;;4.53;3.67;;;23.40;99.90;;;;;;4885745;29;20456;-90
2022/09/14 13:03:47;;;;;;;4.87;3.53;;;23.20;99.90;;;;;;4904393;29;20553;-88
2022/09/14 13:06:13;;;;;;;3.50;3.20;;;23.10;99.90;;;;;;4892237;29;20581;-89
2022/09/14 13:08:43;;;;;;;4.40;3.37;;;23.20;99.90;;;;;;4913878;29;20712;-90
2022/09/14 13:11:32;;;;;;;4.20;3.20;;;23.20;99.90;;;;;;4890376;29;20315;-89
2022/09/14 13:13:59;;;;;;;3.63;3.03;;;23.20;99.90;;;;;;4862700;29;20489;-89
2022/09/14 13:16:42;;;;;;;3.60;3.33;;;23.10;99.90;;;;;;4893416;29;20451;-88
2022/09/14 13:19:31;;;;;;;4.10;3.80;;;23.00;99.90;;;;;;4912308;29;20451;-90
2022/09/14 13:21:59;;;;;;;4.47;3.77;;;22.80;99.90;;;;;;4902057;29;20451;-91
2022/09/14 13:24:44;;;;;;;3.97;3.27;;;22.60;99.90;;;;;;4886944;29;20443;-92
2022/09/14 13:27:28;;;;;;;2.53;2.33;;;22.30;99.90;;;;;;4892436;29;21044;-93
2022/09/14 13:30:17;;;;;;;3.70;2.80;;;22.00;99.90;;;;;;4908106;29;20438;-93
2022/09/14 13:32:45;;;;;;;3.03;2.70;;;21.80;99.90;;;;;;4892996;29;20483;-93
2022/09/14 13:35:31;;;;;;;3.70;2.40;;;21.40;99.90;;;;;;4912476;29;21509;-91
2022/09/14 13:37:59;;;;;;;5.50;2.97;;;21.00;99.90;;;;;;4896917;29;20447;-92
2022/09/14 13:40:28;;;;;;;2.70;2.50;;;20.90;99.90;;;;;;4907096;29;20452;-93
2022/09/14 13:42:58;;;;;;;2.90;2.60;;;20.70;99.90;;;;;;4903450;29;20576;-94
2022/09/14 13:45:24;;;;;;;4.07;3.03;;;20.80;99.90;;;;;;4904622;29;20455;-93
2022/09/14 13:47:50;;;;;;;4.77;2.93;;;20.90;99.90;;;;;;4904116;29;20799;-92
2022/09/14 13:50:16;;;;;;;3.13;2.93;;;20.90;99.90;;;;;;4906097;29;20514;-93
2022/09/14 13:52:42;;;;;;;3.53;2.77;;;21.00;99.90;;;;;;4905443;29;21008;-92
2022/09/14 13:55:24;;;;;;;2.40;2.20;;;21.10;99.90;;;;;;4906096;29;20451;-91
2022/09/14 13:58:08;;;;;;;2.60;2.33;;;21.20;99.90;;;;;;4904711;29;20211;-92
2022/09/14 14:00:51;;;;;;;3.60;1.90;;;21.30;99.90;;;;;;4906399;29;20511;-94
2022/09/14 14:03:25;;;;;;;2.00;1.80;;;21.30;99.90;;;;;;4903912;29;20439;-93
2022/09/14 14:05:51;;;;;;;2.30;2.10;;;21.30;99.90;;;;;;4904366;29;21232;-92